Adams, Wisconsin
Current Conditions -  °F | °C
As of 7:58 AM on Monday 22 Dec 2014 (Local Time) from KVOK Reporting Station
Haze Haze  
Wind Chill: 26°   Ceiling: 1100
Heat Index: 34°   Visibility: 5mi
Dew Point: 34°   Wind: 10mph
Humidity: 100%   Direction: 130°SE
Pressure: 29.81"   Gusts: NA
Location:  43.96°N, 89.82°W
Report Text: KVOK 221358Z 13009KT 5SM BR OVC011 01/01 A2981 RMK AO2A SLP106
Loading
Personal Weather Stations






























Interactive Weather Map New forecast layout! Learn more

10-Day Weather Forecast

Advertisements
Track Severe Weather on mobile